Time;durP1;ratioP1;P1;durP2;ratioP2;P2;SDS_P1;SDS_P2;PMS_P1;PMS_P2;Temp;Humidity;BMP_temperature;BMP_pressure;BME280_temperature;BME280_humidity;BME280_pressure;Samples;Min_cycle;Max_cycle;Signal;HPM_P1;HPM_P2
2022/04/11 00:00:48;;;;;;;10.63;4.60;;;;;;;10.20;43.21;101854.59;6338916;22;20019;-62
2022/04/11 00:03:15;;;;;;;7.20;4.97;;;;;;;10.18;43.08;101848.41;6338021;22;20019;-62
2022/04/11 00:05:42;;;;;;;7.22;4.63;;;;;;;10.17;43.18;101855.59;6311543;22;20010;-62
2022/04/11 00:08:08;;;;;;;8.98;4.80;;;;;;;10.16;42.97;101850.31;6339352;22;20019;-62
2022/04/11 00:10:35;;;;;;;8.70;5.03;;;;;;;10.16;43.14;101847.63;6339207;22;20015;-62
2022/04/11 00:13:05;;;;;;;8.73;5.22;;;;;;;10.16;43.31;101840.44;6339225;22;20034;-61
2022/04/11 00:15:38;;;;;;;9.45;5.68;;;;;;;10.14;43.38;101836.09;6339184;22;20014;-61
2022/04/11 00:18:05;;;;;;;8.43;5.63;;;;;;;10.11;43.20;101842.50;6339556;22;20101;-61
2022/04/11 00:20:32;;;;;;;8.60;5.45;;;;;;;10.09;43.28;101835.50;6311294;22;20336;-61
2022/04/11 00:22:58;;;;;;;6.85;5.30;;;;;;;10.08;43.25;101837.31;6339472;22;20101;-62
2022/04/11 00:25:25;;;;;;;6.93;5.93;;;;;;;10.06;43.34;101830.28;6339346;22;20017;-61
2022/04/11 00:27:52;;;;;;;7.57;5.50;;;;;;;10.04;43.30;101832.19;6339416;22;20011;-62
2022/04/11 00:30:19;;;;;;;7.22;5.07;;;;;;;10.02;43.42;101826.03;6338518;22;20391;-61
2022/04/11 00:32:47;;;;;;;8.90;6.03;;;;;;;10.00;43.35;101818.06;6339552;22;20441;-61
2022/04/11 00:35:13;;;;;;;7.55;5.97;;;;;;;9.99;43.51;101826.19;6339020;22;20434;-61
2022/04/11 00:37:41;;;;;;;8.02;5.90;;;;;;;9.99;43.59;101823.50;6339074;22;20011;-62
2022/04/11 00:40:09;;;;;;;8.68;5.68;;;;;;;10.00;43.67;101823.44;6285115;22;20019;-61
2022/04/11 00:42:37;;;;;;;8.55;6.35;;;;;;;10.01;43.80;101818.94;6312309;22;20023;-61
2022/04/11 00:45:05;;;;;;;8.98;6.30;;;;;;;10.01;43.73;101809.06;6339009;22;20018;-62
2022/04/11 00:47:32;;;;;;;9.88;6.18;;;;;;;10.00;43.70;101812.69;6339284;22;20015;-62
2022/04/11 00:50:05;;;;;;;6.70;6.00;;;;;;;10.00;43.54;101814.50;6310933;22;20011;-61
2022/04/11 00:52:34;;;;;;;11.25;6.10;;;;;;;10.00;43.82;101810.00;6339332;22;20015;-61
2022/04/11 00:55:02;;;;;;;9.00;6.20;;;;;;;10.02;43.85;101805.44;6311280;22;20015;-62
2022/04/11 00:57:29;;;;;;;9.35;6.63;;;;;;;10.04;43.87;101802.66;6338940;22;20025;-62
2022/04/11 00:59:57;;;;;;;9.88;6.50;;;;;;;10.03;43.98;101801.78;6311016;22;20023;-62
2022/04/11 01:02:23;;;;;;;8.00;6.13;;;;;;;10.04;43.77;101794.59;6338705;22;20448;-62
2022/04/11 01:04:50;;;;;;;8.98;6.82;;;;;;;10.04;43.89;101782.06;6311069;22;20015;-62
2022/04/11 01:07:16;;;;;;;10.20;6.00;;;;;;;10.04;43.79;101798.16;6309610;22;20014;-61
2022/04/11 01:09:43;;;;;;;8.43;6.55;;;;;;;10.05;43.73;101788.28;6338640;22;20014;-61
2022/04/11 01:12:11;;;;;;;8.93;6.55;;;;;;;10.05;43.69;101783.78;6310796;22;20081;-61
2022/04/11 01:14:38;;;;;;;9.15;6.65;;;;;;;10.03;43.94;101784.81;6311128;22;20090;-61
2022/04/11 01:17:05;;;;;;;10.63;6.90;;;;;;;10.01;43.75;101779.53;6311270;22;20030;-60
2022/04/11 01:19:31;;;;;;;10.45;6.97;;;;;;;9.98;43.88;101779.69;6338499;22;20014;-61
2022/04/11 01:21:58;;;;;;;10.00;6.45;;;;;;;9.94;43.91;101775.44;6338195;22;20015;-61
2022/04/11 01:24:25;;;;;;;13.07;6.50;;;;;;;9.90;44.00;101778.38;6311277;22;20042;-60
2022/04/11 01:26:55;;;;;;;9.27;7.05;;;;;;;9.87;44.02;101776.72;6311738;22;20475;-61
2022/04/11 01:29:22;;;;;;;9.48;6.90;;;;;;;9.85;44.17;101781.31;6312793;22;20441;-61
2022/04/11 01:31:49;;;;;;;7.25;6.55;;;;;;;9.84;44.21;101771.53;6312360;22;20053;-61
2022/04/11 01:34:15;;;;;;;10.00;6.30;;;;;;;9.84;44.36;101777.75;6340577;22;20352;-61
2022/04/11 01:36:42;;;;;;;10.20;6.78;;;;;;;9.86;44.26;101775.00;6312583;22;20015;-61
2022/04/11 01:39:11;;;;;;;9.20;6.72;;;;;;;9.86;44.33;101769.63;6312839;22;20448;-61
2022/04/11 01:41:38;;;;;;;8.00;7.20;;;;;;;9.84;44.32;101775.06;6312604;22;20504;-61
2022/04/11 01:44:05;;;;;;;9.40;6.43;;;;;;;9.84;44.40;101771.53;6340278;22;20513;-61
2022/04/11 01:46:31;;;;;;;9.50;7.78;;;;;;;9.82;44.51;101771.59;6340142;22;20015;-61
2022/04/11 01:49:07;;;;;;;9.63;7.53;;;;;;;9.84;44.49;101776.91;6312772;22;20026;-61
2022/04/11 01:51:34;;;;;;;10.95;7.40;;;;;;;9.85;44.46;101775.94;6311738;22;20045;-61
2022/04/11 01:54:00;;;;;;;8.95;6.90;;;;;;;9.86;44.61;101780.34;6340476;22;20021;-61
2022/04/11 01:56:27;;;;;;;11.00;7.97;;;;;;;9.87;44.60;101779.41;6340450;22;20332;-62
2022/04/11 01:58:54;;;;;;;9.38;7.72;;;;;;;9.85;44.46;101775.94;6312618;22;20054;-61
2022/04/11 02:01:21;;;;;;;8.90;7.07;;;;;;;9.84;44.50;101777.75;6311382;22;20061;-61
2022/04/11 02:03:47;;;;;;;9.70;7.35;;;;;;;9.85;44.55;101782.19;6340125;22;20015;-61
2022/04/11 02:06:15;;;;;;;9.93;7.53;;;;;;;9.86;44.55;101780.34;6312625;22;20019;-61
2022/04/11 02:08:42;;;;;;;9.05;7.82;;;;;;;9.84;44.65;101775.06;6312487;22;20025;-61
2022/04/11 02:11:12;;;;;;;12.65;8.02;;;;;;;9.86;44.63;101783.03;6312515;22;20021;-61
2022/04/11 02:13:39;;;;;;;9.65;7.00;;;;;;;9.85;44.90;101776.81;6312495;22;20015;-62
2022/04/11 02:16:05;;;;;;;9.20;6.95;;;;;;;9.85;44.54;101774.13;6340024;22;20022;-61
2022/04/11 02:18:32;;;;;;;7.68;6.88;;;;;;;9.85;44.53;101765.22;6312332;22;20508;-62
2022/04/11 02:21:00;;;;;;;8.13;7.35;;;;;;;9.85;44.56;101771.44;6312143;22;20118;-61
2022/04/11 02:23:27;;;;;;;9.02;7.28;;;;;;;9.87;44.57;101771.38;6312625;22;20091;-62
2022/04/11 02:25:54;;;;;;;11.80;7.43;;;;;;;9.87;44.46;101776.72;6339733;22;20371;-61
2022/04/11 02:28:21;;;;;;;10.60;7.63;;;;;;;9.86;44.40;101773.19;6312306;22;20016;-62
2022/04/11 02:30:49;;;;;;;9.65;7.57;;;;;;;9.85;44.49;101770.59;6312433;22;20112;-62
2022/04/11 02:33:17;;;;;;;10.35;7.80;;;;;;;9.84;44.56;101774.22;6339971;22;20109;-61
2022/04/11 02:35:44;;;;;;;8.20;6.82;;;;;;;9.81;44.43;101775.25;6339818;22;20041;-61
2022/04/11 02:38:11;;;;;;;8.60;7.30;;;;;;;9.79;44.49;101776.28;6312267;22;20014;-62
2022/04/11 02:40:40;;;;;;;10.57;6.95;;;;;;;9.78;44.53;101783.44;6311944;22;20019;-61
2022/04/11 02:43:29;;;;;;;9.48;7.35;;;;;;;9.77;44.56;101776.34;6310342;22;20015;-61
2022/04/11 02:46:02;;;;;;;9.95;7.18;;;;;;;9.76;44.45;101776.44;6312319;22;20056;-62
2022/04/11 02:48:33;;;;;;;9.40;7.35;;;;;;;9.75;44.46;101780.06;6312177;22;20321;-61
2022/04/11 02:51:14;;;;;;;12.38;7.88;;;;;;;9.71;44.55;101767.75;6311742;22;20014;-61
2022/04/11 02:53:52;;;;;;;9.00;7.78;;;;;;;9.64;44.53;101775.22;6312224;22;20106;-61
2022/04/11 02:56:19;;;;;;;11.10;7.85;;;;;;;9.61;44.61;101770.03;6312085;22;20010;-61
2022/04/11 02:58:45;;;;;;;9.13;7.28;;;;;;;9.59;44.67;101773.75;6311763;22;20391;-61
2022/04/11 03:01:13;;;;;;;9.05;7.85;;;;;;;9.57;44.66;101765.78;6311836;22;20021;-61
2022/04/11 03:03:42;;;;;;;9.43;7.15;;;;;;;9.56;44.68;101764.91;6311793;22;20022;-62
2022/04/11 03:06:10;;;;;;;8.68;7.10;;;;;;;9.53;44.64;101762.38;6312109;22;20019;-62
2022/04/11 03:08:37;;;;;;;10.95;7.40;;;;;;;9.52;44.55;101771.38;6286731;22;20088;-62
2022/04/11 03:11:06;;;;;;;9.18;8.00;;;;;;;9.48;44.70;101772.47;6318868;22;20042;-61
2022/04/11 03:13:32;;;;;;;8.57;7.35;;;;;;;9.46;44.58;101765.47;6312694;22;20069;-61
2022/04/11 03:15:59;;;;;;;9.55;8.13;;;;;;;9.43;44.56;101761.13;6312070;22;20274;-60
2022/04/11 03:18:26;;;;;;;8.30;7.15;;;;;;;9.39;44.63;101750.66;6310255;22;20018;-62
2022/04/11 03:20:53;;;;;;;11.13;7.38;;;;;;;9.39;44.64;101753.31;6311755;22;20046;-61
2022/04/11 03:23:20;;;;;;;8.07;7.03;;;;;;;9.37;44.64;101753.41;6311479;22;20019;-61
2022/04/11 03:25:51;;;;;;;11.48;7.78;;;;;;;9.36;44.68;101750.81;6312064;22;20038;-61
2022/04/11 03:28:21;;;;;;;10.60;7.60;;;;;;;9.33;44.65;101750.97;6312046;22;20532;-61
2022/04/11 03:30:48;;;;;;;9.73;7.97;;;;;;;9.32;44.68;101750.09;6311175;22;20444;-61
2022/04/11 03:33:16;;;;;;;9.57;7.88;;;;;;;9.31;44.74;101753.72;6311384;22;20460;-61
2022/04/11 03:35:42;;;;;;;11.10;8.30;;;;;;;9.30;44.85;101754.66;6311664;22;20452;-61
2022/04/11 03:38:09;;;;;;;10.35;8.10;;;;;;;9.25;44.90;101754.03;6339635;22;20011;-61
2022/04/11 03:40:36;;;;;;;14.18;9.00;;;;;;;9.22;44.70;101751.50;6339101;22;20014;-61
2022/04/11 03:43:07;;;;;;;12.75;8.75;;;;;;;9.18;44.89;101756.16;6311546;22;20015;-61
2022/04/11 03:45:34;;;;;;;11.00;8.35;;;;;;;9.13;44.93;101754.66;6311688;22;20108;-60
2022/04/11 03:48:01;;;;;;;10.23;8.77;;;;;;;9.08;45.17;101759.38;6310240;22;20440;-60
2022/04/11 03:50:31;;;;;;;13.65;8.80;;;;;;;9.02;44.88;101762.38;6310697;22;20520;-61
2022/04/11 03:52:58;;;;;;;11.75;8.48;;;;;;;8.97;45.05;101764.41;6310964;22;20022;-61
2022/04/11 03:55:25;;;;;;;10.68;8.30;;;;;;;8.91;45.05;101758.38;6311684;22;20018;-60
2022/04/11 03:57:54;;;;;;;10.40;9.25;;;;;;;8.87;44.98;101754.13;6311608;22;20018;-62
2022/04/11 04:00:22;;;;;;;13.02;8.80;;;;;;;8.79;45.23;101767.03;6311236;22;20098;-61
2022/04/11 04:03:11;;;;;;;14.45;8.68;;;;;;;8.71;45.08;101758.50;6289598;22;20038;-61
2022/04/11 04:05:46;;;;;;;9.63;8.50;;;;;;;8.66;45.50;101759.66;6311214;22;20101;-61
2022/04/11 04:08:17;;;;;;;11.25;8.90;;;;;;;8.55;45.14;101755.69;6311660;22;20108;-61
2022/04/11 04:10:54;;;;;;;10.82;8.52;;;;;;;8.46;45.24;101763.31;6339323;22;20039;-62
2022/04/11 04:13:21;;;;;;;9.43;8.15;;;;;;;8.38;45.38;101760.13;6311342;22;20038;-62
2022/04/11 04:15:49;;;;;;;11.73;9.25;;;;;;;8.33;45.49;101762.13;6311318;22;20387;-62
2022/04/11 04:18:16;;;;;;;12.18;8.65;;;;;;;8.30;45.56;101760.44;6285825;22;20352;-62
2022/04/11 04:20:42;;;;;;;10.65;8.57;;;;;;;8.32;45.70;101758.56;6310643;22;20053;-61
2022/04/11 04:23:10;;;;;;;11.10;8.93;;;;;;;8.35;45.73;101768.28;6310972;22;20015;-61
2022/04/11 04:25:37;;;;;;;9.68;8.25;;;;;;;8.34;45.76;101756.72;6339299;22;20011;-61
2022/04/11 04:28:04;;;;;;;13.48;9.20;;;;;;;8.34;45.97;101761.22;6311435;22;20015;-61
2022/04/11 04:30:34;;;;;;;12.82;9.15;;;;;;;8.34;45.96;101761.22;6311285;22;20547;-62
2022/04/11 04:33:00;;;;;;;12.93;9.65;;;;;;;8.32;45.65;101749.66;6311706;22;20022;-62
2022/04/11 04:35:27;;;;;;;11.23;9.38;;;;;;;8.28;46.08;101752.50;6338954;22;20086;-61
2022/04/11 04:37:57;;;;;;;11.63;8.88;;;;;;;8.26;45.99;101757.06;6310822;22;20015;-61
2022/04/11 04:40:26;;;;;;;11.30;9.25;;;;;;;8.20;46.05;101745.75;6310021;22;20023;-62
2022/04/11 04:42:54;;;;;;;14.32;9.35;;;;;;;8.14;46.06;101736.19;6311188;22;20015;-61
2022/04/11 04:45:23;;;;;;;12.20;9.65;;;;;;;8.07;46.20;101748.13;6311571;22;20345;-61
2022/04/11 04:48:14;;;;;;;10.20;8.75;;;;;;;7.98;46.22;101735.16;6311549;22;20007;-61
2022/04/11 04:50:41;;;;;;;13.57;9.40;;;;;;;7.90;46.33;101742.69;6310400;22;20026;-61
2022/04/11 04:53:12;;;;;;;10.35;9.20;;;;;;;7.84;46.20;101742.94;6311117;22;20051;-60
2022/04/11 04:55:38;;;;;;;15.25;9.77;;;;;;;7.79;46.34;101739.63;6310754;22;20513;-61
2022/04/11 04:58:07;;;;;;;12.60;9.27;;;;;;;7.75;46.35;101738.88;6310599;22;20440;-60
2022/04/11 05:00:34;;;;;;;13.85;10.60;;;;;;;7.72;46.50;101738.16;6338468;22;20018;-60
2022/04/11 05:03:02;;;;;;;11.60;9.80;;;;;;;7.67;46.43;101734.81;6287661;22;20352;-61
2022/04/11 05:05:29;;;;;;;13.10;9.95;;;;;;;7.62;46.63;101743.06;6313101;22;20049;-61
2022/04/11 05:07:58;;;;;;;13.40;10.02;;;;;;;7.58;46.52;101731.63;6313206;22;20038;-61
2022/04/11 05:10:28;;;;;;;11.38;9.48;;;;;;;7.56;46.92;101733.50;6312032;22;20014;-61
2022/04/11 05:12:55;;;;;;;12.02;9.18;;;;;;;7.55;46.88;101730.91;6312834;22;20023;-61
2022/04/11 05:15:23;;;;;;;10.18;8.75;;;;;;;7.53;46.91;101736.31;6313022;22;20058;-61
2022/04/11 05:17:55;;;;;;;12.77;9.90;;;;;;;7.53;46.84;101738.13;6312784;22;20021;-61
2022/04/11 05:20:25;;;;;;;13.52;9.65;;;;;;;7.53;47.04;101727.41;6312884;22;20054;-61
2022/04/11 05:22:52;;;;;;;12.48;9.60;;;;;;;7.53;46.97;101730.97;6340413;22;20474;-61
2022/04/11 05:25:20;;;;;;;14.65;10.60;;;;;;;7.54;47.20;101721.13;6312157;22;20018;-61
2022/04/11 05:27:47;;;;;;;11.73;9.05;;;;;;;7.54;47.09;101745.19;6340316;22;20015;-61
2022/04/11 05:30:15;;;;;;;13.50;10.50;;;;;;;7.55;47.16;101737.09;6312679;22;20015;-60
2022/04/11 05:32:42;;;;;;;15.55;9.77;;;;;;;7.56;47.44;101738.84;6313169;22;20025;-60
2022/04/11 05:35:10;;;;;;;15.07;9.63;;;;;;;7.57;47.33;101739.72;6340192;22;20015;-60
2022/04/11 05:37:38;;;;;;;14.57;9.70;;;;;;;7.56;47.34;101736.16;6312927;22;20041;-60
2022/04/11 05:40:09;;;;;;;11.73;8.80;;;;;;;7.58;47.46;101736.09;6311713;22;20038;-60
2022/04/11 05:42:37;;;;;;;12.73;9.20;;;;;;;7.59;47.44;101741.38;6311765;22;20018;-60
2022/04/11 05:45:07;;;;;;;11.30;9.20;;;;;;;7.63;47.51;101742.97;6312581;22;20105;-61
2022/04/11 05:47:34;;;;;;;12.05;9.30;;;;;;;7.68;47.55;101742.78;6311956;22;20333;-60
2022/04/11 05:50:01;;;;;;;11.80;9.57;;;;;;;7.74;47.58;101746.97;6310131;22;20015;-61
2022/04/11 05:52:35;;;;;;;15.15;9.85;;;;;;;7.79;47.59;101744.97;6339153;22;20010;-61
2022/04/11 05:55:01;;;;;;;12.13;9.43;;;;;;;7.82;47.83;101739.47;6312598;22;20015;-61
2022/04/11 05:57:28;;;;;;;13.07;10.02;;;;;;;7.84;47.67;101737.59;6312261;22;20038;-62
2022/04/11 05:59:55;;;;;;;11.70;9.13;;;;;;;7.87;47.56;101734.78;6312406;22;20014;-62
2022/04/11 06:02:21;;;;;;;11.15;9.02;;;;;;;7.90;47.93;101724.81;6312577;22;20011;-62
2022/04/11 06:04:51;;;;;;;16.67;9.90;;;;;;;7.95;48.02;101730.81;6311688;22;20356;-62
2022/04/11 06:07:20;;;;;;;12.32;9.45;;;;;;;8.01;47.93;101732.34;6312311;22;20019;-62
2022/04/11 06:09:50;;;;;;;12.90;9.13;;;;;;;8.08;48.07;101735.59;6312299;22;20018;-61
2022/04/11 06:12:17;;;;;;;14.10;9.23;;;;;;;8.15;48.19;101745.94;6340158;22;20019;-61
2022/04/11 06:14:49;;;;;;;14.27;10.52;;;;;;;8.22;48.28;101739.41;6287696;22;20015;-62
2022/04/11 06:17:17;;;;;;;12.23;8.98;;;;;;;8.31;48.28;101743.44;6286578;22;20022;-61
2022/04/11 06:19:43;;;;;;;14.68;9.40;;;;;;;8.37;48.28;101742.31;6287496;22;20025;-61
2022/04/11 06:22:11;;;;;;;15.68;9.43;;;;;;;8.45;48.37;101746.38;6339959;22;20015;-61
2022/04/11 06:24:45;;;;;;;13.45;10.07;;;;;;;8.53;48.35;101746.88;6288026;22;20023;-63
2022/04/11 06:27:13;;;;;;;11.05;9.35;;;;;;;8.62;48.32;101748.22;6313199;22;20015;-63
2022/04/11 06:29:41;;;;;;;14.57;9.43;;;;;;;8.71;48.37;101734.41;6312757;22;20015;-65
2022/04/11 06:32:08;;;;;;;9.63;8.63;;;;;;;8.81;48.45;101738.34;6312220;22;20015;-66
2022/04/11 06:34:38;;;;;;;12.77;9.38;;;;;;;8.90;48.48;101737.03;6313491;22;20072;-66
2022/04/11 06:37:05;;;;;;;12.93;8.77;;;;;;;9.00;48.34;101735.66;6311647;22;20019;-66
2022/04/11 06:39:32;;;;;;;9.35;8.10;;;;;;;9.11;48.25;101740.47;6339576;22;20011;-65
2022/04/11 06:42:00;;;;;;;10.48;7.80;;;;;;;9.23;48.35;101737.16;6261828;22;20049;-66
2022/04/11 06:44:28;;;;;;;16.10;8.50;;;;;;;9.36;48.59;101734.72;6310891;22;20023;-65
2022/04/11 06:46:57;;;;;;;13.25;9.50;;;;;;;9.50;48.38;101727.69;6339261;22;20325;-64
2022/04/11 06:49:25;;;;;;;11.40;8.40;;;;;;;9.68;48.41;101725.00;6312012;22;20050;-64
2022/04/11 06:51:57;;;;;;;14.95;8.68;;;;;;;9.86;48.37;101729.38;6287106;22;20015;-65
2022/04/11 06:54:24;;;;;;;12.30;8.77;;;;;;;10.02;48.41;101727.59;6338993;22;20038;-64
2022/04/11 06:56:50;;;;;;;11.85;7.90;;;;;;;10.19;48.25;101727.53;6339596;22;20015;-65
2022/04/11 06:59:17;;;;;;;12.38;7.93;;;;;;;10.37;48.06;101727.50;6312471;22;20015;-64
2022/04/11 07:01:45;;;;;;;9.55;7.70;;;;;;;10.53;48.03;101733.75;6339621;22;20054;-65
2022/04/11 07:04:12;;;;;;;10.65;8.10;;;;;;;10.67;47.90;101733.84;6312122;22;20037;-65
2022/04/11 07:06:38;;;;;;;10.43;7.55;;;;;;;10.83;47.88;101737.38;6311660;22;20011;-65
2022/04/11 07:09:05;;;;;;;11.77;8.27;;;;;;;11.05;47.92;101741.50;6339658;22;20025;-64
2022/04/11 07:11:32;;;;;;;14.20;7.70;;;;;;;11.27;47.75;101735.75;6311603;22;20106;-65
2022/04/11 07:13:58;;;;;;;10.85;7.35;;;;;;;11.46;47.49;101739.91;6311831;22;20341;-65
2022/04/11 07:16:25;;;;;;;11.25;6.93;;;;;;;11.65;47.38;101750.41;6339697;22;20089;-65
2022/04/11 07:18:51;;;;;;;12.77;7.55;;;;;;;11.85;47.57;101746.53;6311916;22;20497;-66
2022/04/11 07:21:18;;;;;;;9.80;6.68;;;;;;;12.08;47.16;101745.13;6312321;22;20019;-65
2022/04/11 07:23:45;;;;;;;8.52;6.97;;;;;;;12.26;46.88;101741.25;6339059;22;20093;-65
2022/04/11 07:26:12;;;;;;;11.75;7.70;;;;;;;12.44;46.81;101739.22;6339316;22;20069;-65
2022/04/11 07:28:39;;;;;;;8.48;6.30;;;;;;;12.61;46.65;101738.13;6339258;22;20011;-65
2022/04/11 07:31:07;;;;;;;9.30;6.55;;;;;;;12.81;46.39;101734.13;6339240;22;20014;-65
2022/04/11 07:33:34;;;;;;;7.68;6.88;;;;;;;13.01;46.47;101729.16;6339410;22;20314;-66
2022/04/11 07:36:01;;;;;;;9.52;6.72;;;;;;;13.24;46.11;101730.31;6339224;22;20018;-64
2022/04/11 07:38:28;;;;;;;8.98;6.78;;;;;;;13.52;46.13;101723.91;6339261;22;20086;-64
2022/04/11 07:40:55;;;;;;;10.20;7.20;;;;;;;13.68;45.89;101719.16;6339047;22;20074;-65
2022/04/11 07:43:23;;;;;;;9.57;6.32;;;;;;;13.82;45.95;101718.19;6339611;22;20337;-66
2022/04/11 07:45:49;;;;;;;7.75;6.43;;;;;;;13.98;45.49;101716.13;6337623;22;20025;-66
2022/04/11 07:48:16;;;;;;;7.82;6.78;;;;;;;14.10;45.27;101706.28;6338938;22;20015;-66
2022/04/11 07:50:43;;;;;;;11.27;6.35;;;;;;;14.21;45.11;101710.94;6339017;22;20060;-65
2022/04/11 07:53:09;;;;;;;8.80;6.18;;;;;;;14.38;44.80;101702.47;6337603;22;20387;-64
2022/04/11 07:55:36;;;;;;;8.10;6.28;;;;;;;14.58;44.65;101706.44;6285719;22;20347;-65
2022/04/11 07:58:02;;;;;;;7.25;6.10;;;;;;;14.72;44.42;101705.41;6339064;22;20022;-67
2022/04/11 08:00:29;;;;;;;10.18;5.97;;;;;;;14.86;44.57;101705.22;6311205;22;20065;-65
2022/04/11 08:02:57;;;;;;;8.13;6.35;;;;;;;14.97;44.08;101701.75;6339210;22;20015;-65
2022/04/11 08:05:24;;;;;;;7.35;5.70;;;;;;;15.05;44.10;101702.88;6339159;22;20064;-66
2022/04/11 08:07:51;;;;;;;9.30;6.07;;;;;;;15.15;43.76;101705.75;6339154;22;20036;-67
2022/04/11 08:10:19;;;;;;;8.55;5.93;;;;;;;15.22;43.45;101691.63;6339010;22;20014;-66
2022/04/11 08:12:57;;;;;;;7.60;5.40;;;;;;;15.35;43.26;101696.09;6339179;22;20010;-66
2022/04/11 08:15:25;;;;;;;7.15;5.95;;;;;;;15.47;43.46;101685.16;6339272;22;20060;-66
2022/04/11 08:17:54;;;;;;;7.28;5.25;;;;;;;15.60;43.52;101693.22;6339114;22;20022;-66
2022/04/11 08:20:21;;;;;;;6.03;4.57;;;;;;;15.70;42.68;101691.53;6339211;22;20089;-65
2022/04/11 08:22:48;;;;;;;8.23;5.00;;;;;;;15.80;42.56;101686.25;6339463;22;20011;-66
2022/04/11 08:25:14;;;;;;;6.85;5.25;;;;;;;15.92;42.39;101684.41;6338916;22;20015;-66
2022/04/11 08:27:41;;;;;;;7.40;4.80;;;;;;;16.04;42.35;101681.56;6311452;22;20094;-66
2022/04/11 08:30:10;;;;;;;8.55;4.60;;;;;;;16.14;41.96;101678.97;6338621;22;20348;-66
2022/04/11 08:32:41;;;;;;;6.45;4.47;;;;;;;16.23;41.67;101675.50;6339086;22;20011;-65
2022/04/11 08:35:08;;;;;;;7.88;4.78;;;;;;;16.32;41.67;101679.31;6312127;22;20029;-66
2022/04/11 08:37:40;;;;;;;6.18;4.18;;;;;;;16.39;41.40;101676.00;6341183;22;20453;-65
2022/04/11 08:40:10;;;;;;;5.78;4.18;;;;;;;16.50;41.30;101678.69;6341073;22;20011;-66
2022/04/11 08:42:42;;;;;;;6.60;4.03;;;;;;;16.64;41.35;101676.69;6341343;22;20388;-67
2022/04/11 08:45:13;;;;;;;6.65;4.30;;;;;;;16.73;41.21;101673.22;6341284;22;20014;-66
2022/04/11 08:47:41;;;;;;;6.53;4.07;;;;;;;16.82;40.91;101672.47;6340948;22;20015;-67
2022/04/11 08:50:10;;;;;;;10.52;4.63;;;;;;;16.91;40.66;101668.09;6340624;22;20386;-65
2022/04/11 08:52:37;;;;;;;7.07;3.78;;;;;;;17.00;40.63;101665.47;6344895;22;20090;-66
2022/04/11 08:55:05;;;;;;;8.65;4.82;;;;;;;17.07;40.40;101657.66;6352429;22;20006;-65
2022/04/11 08:57:31;;;;;;;6.95;4.07;;;;;;;17.15;39.96;101664.19;6348543;22;20011;-65
2022/04/11 09:00:13;;;;;;;6.57;3.70;;;;;;;17.22;39.64;101661.81;6340508;22;20014;-67
2022/04/11 09:02:42;;;;;;;5.13;3.80;;;;;;;17.27;39.36;101664.13;6313227;22;20340;-65
2022/04/11 09:05:10;;;;;;;5.90;3.85;;;;;;;17.33;39.41;101655.47;6312869;22;20345;-66
2022/04/11 09:07:53;;;;;;;9.25;4.60;;;;;;;17.37;39.32;101659.63;6340689;22;20450;-65
2022/04/11 09:10:28;;;;;;;6.63;4.20;;;;;;;17.46;39.09;101654.25;6340219;22;20014;-66
2022/04/11 09:12:57;;;;;;;5.57;3.95;;;;;;;17.58;39.34;101655.03;6340966;22;20014;-66
2022/04/11 09:15:25;;;;;;;8.65;4.28;;;;;;;17.67;38.96;101653.41;6340592;22;20014;-66
2022/04/11 09:17:54;;;;;;;8.18;4.47;;;;;;;17.72;38.91;101657.44;6340867;22;20383;-66
2022/04/11 09:20:25;;;;;;;6.28;3.35;;;;;;;17.76;38.65;101653.44;6340484;22;20034;-66
2022/04/11 09:22:52;;;;;;;6.03;4.07;;;;;;;17.79;38.73;101649.59;6340556;22;20459;-65
2022/04/11 09:25:32;;;;;;;5.45;4.13;;;;;;;17.84;38.58;101646.50;6340393;22;20022;-66
2022/04/11 09:28:06;;;;;;;6.30;4.00;;;;;;;17.90;37.98;101657.69;6340677;22;20068;-65
2022/04/11 09:30:34;;;;;;;6.30;4.35;;;;;;;17.96;38.04;101656.28;6313112;22;20089;-66
2022/04/11 09:33:05;;;;;;;6.70;4.00;;;;;;;18.00;37.67;101655.00;6340599;22;20374;-69
2022/04/11 09:35:34;;;;;;;7.15;4.70;;;;;;;18.04;37.63;101645.56;6314026;22;20019;-66
2022/04/11 09:38:20;;;;;;;6.18;4.18;;;;;;;18.13;37.68;101638.44;6340295;22;20011;-66
2022/04/11 09:40:50;;;;;;;;;;;;;;;18.25;37.97;101626.47;6346709;22;20018;-66
2022/04/11 09:43:24;;;;;;;5.75;4.20;;;;;;;18.39;37.42;101631.50;6341143;22;19918;-67
2022/04/11 09:45:53;;;;;;;5.93;4.47;;;;;;;18.48;37.43;101621.63;6309651;22;20045;-66
2022/04/11 09:48:24;;;;;;;5.63;4.15;;;;;;;18.52;37.33;101617.63;6339670;22;20444;-66
2022/04/11 09:50:52;;;;;;;5.70;3.58;;;;;;;18.56;36.44;101619.91;6339909;22;20405;-66
2022/04/11 09:53:24;;;;;;;7.65;4.63;;;;;;;18.58;36.70;101615.22;6340604;22;20017;-67
2022/04/11 09:55:52;;;;;;;6.25;4.03;;;;;;;18.61;36.54;101616.81;6340464;22;20106;-66
2022/04/11 09:58:21;;;;;;;5.03;3.80;;;;;;;18.64;36.23;101608.38;6340135;22;20106;-66
2022/04/11 10:00:50;;;;;;;5.80;3.83;;;;;;;18.69;36.09;101615.13;6312432;22;20057;-65
2022/04/11 10:03:21;;;;;;;5.90;3.75;;;;;;;18.77;35.97;101603.53;6339382;22;20102;-65
2022/04/11 10:05:49;;;;;;;6.72;3.40;;;;;;;18.87;35.91;101619.84;6312703;22;20348;-65
2022/04/11 10:08:16;;;;;;;11.93;4.00;;;;;;;18.91;35.52;101607.66;6313387;22;20368;-65
2022/04/11 10:10:42;;;;;;;6.32;3.67;;;;;;;18.91;35.39;101603.06;6339629;22;20015;-65
2022/04/11 10:13:12;;;;;;;5.53;3.33;;;;;;;18.97;35.02;101610.66;6340038;22;20007;-65
2022/04/11 10:15:40;;;;;;;5.55;3.60;;;;;;;19.04;34.87;101602.78;6340258;22;20341;-65
2022/04/11 10:18:09;;;;;;;5.70;3.55;;;;;;;19.09;34.79;101594.19;6339119;22;20042;-66
2022/04/11 10:20:39;;;;;;;5.07;3.60;;;;;;;19.09;34.27;101595.03;6311911;22;20015;-65
2022/04/11 10:23:40;;;;;;;4.65;3.38;;;;;;;19.07;34.10;101597.03;6339992;22;20045;-66
2022/04/11 10:26:15;;;;;;;5.40;2.90;;;;;;;19.12;34.19;101594.75;6312271;22;20357;-65
2022/04/11 10:28:47;;;;;;;4.35;2.95;;;;;;;19.18;33.80;101593.28;6340152;22;20015;-65
2022/04/11 10:31:15;;;;;;;3.60;2.83;;;;;;;19.22;33.56;101594.72;6338803;22;20173;-65
2022/04/11 10:33:51;;;;;;;3.90;3.00;;;;;;;19.22;33.45;101590.13;6340104;22;20383;-65
2022/04/11 10:36:35;;;;;;;6.53;3.35;;;;;;;19.30;33.36;101582.06;6339948;22;20019;-65
2022/04/11 10:39:13;;;;;;;4.72;3.05;;;;;;;19.33;33.00;101581.81;6339439;22;20330;-65
2022/04/11 10:41:56;;;;;;;5.32;3.22;;;;;;;19.36;33.35;101569.78;6339295;22;20021;-65
2022/04/11 10:44:35;;;;;;;6.82;2.92;;;;;;;19.42;33.40;101574.63;6340137;22;20017;-67
2022/04/11 10:47:08;;;;;;;3.40;2.65;;;;;;;19.46;32.97;101581.50;6313145;22;20463;-66
2022/04/11 10:49:50;;;;;;;3.33;2.90;;;;;;;19.48;32.67;101573.16;6339199;22;20386;-66
2022/04/11 10:52:31;;;;;;;5.53;2.72;;;;;;;19.47;32.28;101572.31;6312264;22;20506;-66
2022/04/11 10:55:17;;;;;;;3.83;2.65;;;;;;;19.48;32.33;101563.13;6312478;22;20098;-65
2022/04/11 10:57:50;;;;;;;6.40;2.80;;;;;;;19.54;32.07;101556.25;6312553;22;20010;-66
2022/04/11 11:00:25;;;;;;;5.43;2.88;;;;;;;19.54;31.74;101565.28;6339301;22;20245;-65
2022/04/11 11:02:52;;;;;;;4.30;2.88;;;;;;;19.49;31.55;101564.00;6339767;22;20011;-65
2022/04/11 11:05:27;;;;;;;5.85;3.17;;;;;;;19.41;31.51;101556.56;6339633;22;20022;-65
2022/04/11 11:08:13;;;;;;;4.27;3.30;;;;;;;19.42;32.12;101558.28;6339698;22;20015;-65
2022/04/11 11:10:45;;;;;;;;;;;;;;;19.51;32.61;101554.66;6339346;22;20010;-65
2022/04/11 11:13:41;;;;;;;6.20;3.30;;;;;;;19.62;31.85;101551.78;6339625;22;19938;-65
2022/04/11 11:16:12;;;;;;;4.60;3.08;;;;;;;19.65;32.08;101546.03;6311937;22;20101;-65
2022/04/11 11:18:48;;;;;;;5.38;3.10;;;;;;;19.69;31.51;101543.84;6339794;22;20382;-65
2022/04/11 11:21:16;;;;;;;4.78;3.28;;;;;;;19.76;31.62;101530.47;6339035;22;20011;-65
2022/04/11 11:26:40;;;;;;;5.75;3.78;;;;;;;19.98;31.49;101516.41;6316219;22;20064;-65
2022/04/11 11:29:17;;;;;;;7.15;3.42;;;;;;;20.05;31.20;101516.66;6339149;22;20080;-65
2022/04/11 11:31:44;;;;;;;5.53;3.30;;;;;;;20.12;31.16;101512.34;6339040;22;20014;-65
2022/04/11 11:34:14;;;;;;;5.43;3.47;;;;;;;20.17;30.97;101505.41;6339391;22;20014;-65
2022/04/11 11:36:42;;;;;;;4.15;3.38;;;;;;;20.23;31.29;101504.78;6337927;22;20033;-65
2022/04/11 11:39:20;;;;;;;4.88;3.20;;;;;;;20.27;31.19;101495.28;6339373;22;20479;-66